createdAt,value
2023-04-10T00:04:35.456Z,86.73
2023-04-10T00:09:38.449Z,86.79
2023-04-10T00:14:41.382Z,86.69
2023-04-10T00:19:45.676Z,87.33
2023-04-10T00:24:48.611Z,86.65
2023-04-10T00:29:51.484Z,87.57
2023-04-10T00:34:56.070Z,87.24
2023-04-10T00:39:59.022Z,89.16
2023-04-10T00:45:02.012Z,88.41
2023-04-10T00:50:07.564Z,88.31
2023-04-10T00:55:11.832Z,89.00
2023-04-10T01:00:15.849Z,88.48
2023-04-10T01:05:20.255Z,89.21
2023-04-10T01:10:34.409Z,88.85
2023-04-10T01:15:45.424Z,88.81
2023-04-10T01:20:49.675Z,89.09
2023-04-10T01:25:57.802Z,88.74
2023-04-10T01:31:03.795Z,90.15
2023-04-10T01:36:08.680Z,89.96
2023-04-10T01:41:11.630Z,89.85
2023-04-10T01:46:17.556Z,90.34
2023-04-10T01:51:20.857Z,89.26
2023-04-10T01:56:25.004Z,90.11
2023-04-10T02:01:30.469Z,89.97
2023-04-10T02:06:42.599Z,89.71
2023-04-10T02:11:50.551Z,90.27
2023-04-10T02:16:57.440Z,91.18
2023-04-10T02:22:01.636Z,90.90
2023-04-10T02:27:04.612Z,91.04
2023-04-10T02:32:09.162Z,90.79
2023-04-10T02:37:12.046Z,91.54
2023-04-10T02:42:15.073Z,92.84
2023-04-10T02:47:20.483Z,91.87
2023-04-10T02:52:24.660Z,91.93
2023-04-10T02:57:28.722Z,92.02
2023-04-10T03:02:33.285Z,91.83
2023-04-10T03:07:44.513Z,91.56
2023-04-10T03:12:48.777Z,90.55
2023-04-10T03:17:53.209Z,90.96
2023-04-10T03:22:56.277Z,91.49
2023-04-10T03:28:02.558Z,91.71
2023-04-10T03:33:07.282Z,92.71
2023-04-10T03:38:10.245Z,93.34
2023-04-10T03:43:13.198Z,93.44
2023-04-10T03:48:17.936Z,92.91
2023-04-10T03:53:23.081Z,93.03
2023-04-10T03:58:28.140Z,93.94
2023-04-10T04:03:33.963Z,94.25
2023-04-10T04:08:38.634Z,93.83
2023-04-10T04:13:53.632Z,92.59
2023-04-10T04:19:24.032Z,93.25
2023-04-10T04:24:42.790Z,92.87
2023-04-10T04:29:55.555Z,92.50
2023-04-10T04:35:02.969Z,92.65
2023-04-10T04:40:32.395Z,93.44
2023-04-10T04:45:49.536Z,94.03
2023-04-10T04:51:09.094Z,94.01
2023-04-10T04:56:22.792Z,93.12
2023-04-10T05:01:42.517Z,92.92
2023-04-10T05:07:07.112Z,91.99
2023-04-10T05:12:35.931Z,91.30
2023-04-10T05:18:14.368Z,91.06
2023-04-10T05:23:37.234Z,90.84
2023-04-10T05:29:05.604Z,89.91
2023-04-10T05:34:31.512Z,89.43
2023-04-10T05:39:46.961Z,88.09
2023-04-10T05:45:12.724Z,86.77
2023-04-10T05:50:41.498Z,83.48
2023-04-10T05:56:09.846Z,82.18
2023-04-10T06:01:42.791Z,79.64
2023-04-10T06:06:45.787Z,75.80
2023-04-10T06:11:50.150Z,73.08
2023-04-10T06:16:56.816Z,74.22
2023-04-10T06:21:59.886Z,76.35
2023-04-10T06:27:04.158Z,73.68
2023-04-10T06:32:07.028Z,74.14
2023-04-10T06:37:13.506Z,72.39
2023-04-10T06:42:18.814Z,71.55
2023-04-10T06:47:33.050Z,71.14
2023-04-10T06:52:35.971Z,69.95
2023-04-10T06:57:40.352Z,68.53
2023-04-10T07:02:43.248Z,68.69
2023-04-10T07:07:47.552Z,66.49
2023-04-10T07:12:51.890Z,65.13
2023-04-10T07:17:56.347Z,65.78
2023-04-10T07:22:59.317Z,64.35
2023-04-10T07:28:03.605Z,64.96
2023-04-10T07:33:06.837Z,64.23
2023-04-10T07:38:09.930Z,64.26
2023-04-10T07:43:14.198Z,62.39
2023-04-10T07:48:17.099Z,63.99
2023-04-10T07:53:20.028Z,68.18
2023-04-10T07:58:24.274Z,67.36
2023-04-10T08:03:27.816Z,67.83
2023-04-10T08:08:30.769Z,65.59
2023-04-10T08:13:35.258Z,63.81
2023-04-10T08:18:38.144Z,66.03
2023-04-10T08:23:41.043Z,61.71
2023-04-10T08:28:47.314Z,63.53
2023-04-10T08:33:50.609Z,62.96
2023-04-10T08:38:53.530Z,65.92
2023-04-10T08:43:58.383Z,64.30
2023-04-10T08:49:04.571Z,63.43
2023-04-10T08:54:11.924Z,60.77
2023-04-10T08:59:16.361Z,56.51
2023-04-10T09:04:19.357Z,58.89
2023-04-10T09:09:22.371Z,58.79
2023-04-10T09:14:28.597Z,56.25
2023-04-10T09:19:32.370Z,56.34
2023-04-10T09:24:37.706Z,57.07
2023-04-10T09:29:46.019Z,57.93
2023-04-10T09:34:57.276Z,59.98
2023-04-10T09:40:00.692Z,57.45
2023-04-10T09:45:06.435Z,58.21
2023-04-10T09:50:09.883Z,61.50
2023-04-10T09:55:18.570Z,59.91
2023-04-10T10:00:22.874Z,59.11
2023-04-10T10:05:28.131Z,57.58
2023-04-10T10:10:31.163Z,52.43
2023-04-10T10:15:39.976Z,54.81
2023-04-10T10:20:47.231Z,53.33
2023-04-10T10:25:52.314Z,54.35
2023-04-10T10:30:57.025Z,49.85
2023-04-10T10:36:01.165Z,48.92
2023-04-10T10:41:13.950Z,47.85
2023-04-10T10:46:23.568Z,47.33
2023-04-10T10:51:47.763Z,47.64
2023-04-10T10:56:50.718Z,47.40
2023-04-10T11:02:16.676Z,49.78
2023-04-10T11:07:20.078Z,45.34
2023-04-10T11:12:24.229Z,47.19
2023-04-10T11:17:51.850Z,46.85
2023-04-10T11:23:12.347Z,47.16
2023-04-10T11:28:36.817Z,45.20
2023-04-10T11:33:41.592Z,43.97
2023-04-10T11:38:55.273Z,44.69
2023-04-10T11:43:59.306Z,45.83
2023-04-10T11:49:05.306Z,44.41
2023-04-10T11:54:09.910Z,43.86
2023-04-10T11:59:14.462Z,44.35
2023-04-10T12:04:20.920Z,41.92
2023-04-10T12:09:24.450Z,40.71
2023-04-10T12:14:32.007Z,40.64
2023-04-10T12:19:36.864Z,39.11
2023-04-10T12:24:44.434Z,38.70
2023-04-10T12:29:47.849Z,38.54
2023-04-10T12:34:57.774Z,37.04
2023-04-10T12:40:07.275Z,34.94
2023-04-10T12:45:13.881Z,37.08
2023-04-10T12:50:20.770Z,35.42
2023-04-10T12:55:23.693Z,36.26
2023-04-10T13:00:26.723Z,35.99
2023-04-10T13:05:31.130Z,38.39
2023-04-10T13:10:34.031Z,35.46
2023-04-10T13:15:36.947Z,34.79
2023-04-10T13:20:42.094Z,36.32
2023-04-10T13:25:45.115Z,37.63
2023-04-10T13:30:48.069Z,39.40
2023-04-10T13:35:52.346Z,38.61
2023-04-10T13:40:55.351Z,38.72
2023-04-10T13:45:58.266Z,38.75
2023-04-10T13:51:02.569Z,37.90
2023-04-10T13:56:06.514Z,38.60
2023-04-10T14:01:09.560Z,37.20
2023-04-10T14:06:14.255Z,37.20
2023-04-10T14:11:17.346Z,37.10
2023-04-10T14:16:20.321Z,37.63
2023-04-10T14:21:24.711Z,38.45
2023-04-10T14:26:27.825Z,37.75
2023-04-10T14:31:30.815Z,37.95
2023-04-10T14:36:35.086Z,36.68
2023-04-10T14:41:38.091Z,36.22
2023-04-10T14:46:41.070Z,37.02
2023-04-10T14:51:48.407Z,38.47
2023-04-10T14:56:51.661Z,37.84
2023-04-10T15:01:54.861Z,36.98
2023-04-10T15:06:59.279Z,38.15
2023-04-10T15:12:02.205Z,38.83
2023-04-10T15:17:05.498Z,38.29
2023-04-10T15:22:10.002Z,37.70
2023-04-10T15:27:12.902Z,37.52
2023-04-10T15:32:15.987Z,38.45
2023-04-10T15:37:20.329Z,38.94
2023-04-10T15:42:23.182Z,38.07
2023-04-10T15:47:26.194Z,38.58
2023-04-10T15:52:32.735Z,39.66
2023-04-10T15:57:36.004Z,39.71
2023-04-10T16:02:39.501Z,39.20
2023-04-10T16:07:44.020Z,39.22
2023-04-10T16:12:47.009Z,39.10
2023-04-10T16:17:49.986Z,40.57
2023-04-10T16:22:54.619Z,39.72
2023-04-10T16:27:57.820Z,40.38
2023-04-10T16:33:00.767Z,40.84
2023-04-10T16:38:05.399Z,41.12
2023-04-10T16:43:09.476Z,40.82
2023-04-10T16:48:12.457Z,42.21
2023-04-10T16:53:17.761Z,42.01
2023-04-10T16:58:20.744Z,42.44
2023-04-10T17:03:23.706Z,41.96
2023-04-10T17:08:28.060Z,41.48
2023-04-10T17:13:30.983Z,42.43
2023-04-10T17:18:34.040Z,42.44
2023-04-10T17:23:38.281Z,43.03
2023-04-10T17:28:44.399Z,43.63
2023-04-10T17:33:47.380Z,44.22
2023-04-10T17:38:54.008Z,45.54
2023-04-10T17:43:57.338Z,45.37
2023-04-10T17:49:01.499Z,46.50
2023-04-10T17:54:06.098Z,46.81
2023-04-10T17:59:09.119Z,47.35
2023-04-10T18:04:12.041Z,47.43
2023-04-10T18:09:16.761Z,47.96
2023-04-10T18:14:20.258Z,48.00
2023-04-10T18:19:23.186Z,48.67
2023-04-10T18:24:27.582Z,48.74
2023-04-10T18:29:32.334Z,48.87
2023-04-10T18:34:35.986Z,49.43
2023-04-10T18:39:40.353Z,49.88
2023-04-10T18:44:43.273Z,50.42
2023-04-10T18:49:46.245Z,52.01
2023-04-10T18:54:50.594Z,51.45
2023-04-10T18:59:53.559Z,52.95
2023-04-10T19:04:56.558Z,54.12
2023-04-10T19:10:00.971Z,54.18
2023-04-10T19:15:05.618Z,55.77
2023-04-10T19:20:09.708Z,54.94
2023-04-10T19:25:13.978Z,55.16
2023-04-10T19:30:16.839Z,54.66
2023-04-10T19:35:19.697Z,54.06
2023-04-10T19:40:24.029Z,54.80
2023-04-10T19:45:29.152Z,55.52
2023-04-10T19:50:32.305Z,57.07
2023-04-10T19:55:36.555Z,60.09
2023-04-10T20:00:39.599Z,61.17
2023-04-10T20:05:42.582Z,62.17
2023-04-10T20:10:47.718Z,62.72
2023-04-10T20:15:50.962Z,62.90
2023-04-10T20:20:54.017Z,62.69
2023-04-10T20:25:58.250Z,63.45
2023-04-10T20:31:01.124Z,63.58
2023-04-10T20:36:04.228Z,64.19
2023-04-10T20:41:08.764Z,64.45
2023-04-10T20:46:11.713Z,65.04
2023-04-10T20:51:14.628Z,65.08
2023-04-10T20:56:21.090Z,66.08
2023-04-10T21:01:24.125Z,65.99
2023-04-10T21:06:27.066Z,67.14
2023-04-10T21:11:31.487Z,67.40
2023-04-10T21:16:34.859Z,68.59
2023-04-10T21:21:37.904Z,68.61
2023-04-10T21:26:42.235Z,68.82
2023-04-10T21:31:45.174Z,69.35
2023-04-10T21:36:48.238Z,70.47
2023-04-10T21:41:52.455Z,70.98
2023-04-10T21:46:55.369Z,70.34
2023-04-10T21:51:59.132Z,71.30
2023-04-10T21:57:03.447Z,71.58
2023-04-10T22:02:06.556Z,70.89
2023-04-10T22:07:09.547Z,70.83
2023-04-10T22:12:13.912Z,71.27
2023-04-10T22:17:16.770Z,72.19
2023-04-10T22:22:21.062Z,72.40
2023-04-10T22:27:25.833Z,74.62
2023-04-10T22:32:28.742Z,73.45
2023-04-10T22:37:31.680Z,73.43
2023-04-10T22:42:35.989Z,74.09
2023-04-10T22:47:38.953Z,73.73
2023-04-10T22:52:41.794Z,73.39
2023-04-10T22:57:49.590Z,73.95
2023-04-10T23:02:52.575Z,71.18
2023-04-10T23:07:56.316Z,73.01
2023-04-10T23:13:00.915Z,70.16
2023-04-10T23:18:03.794Z,67.64
2023-04-10T23:23:06.713Z,67.63
2023-04-10T23:28:11.173Z,67.82
2023-04-10T23:33:14.060Z,68.36
2023-04-10T23:38:17.063Z,69.34
2023-04-10T23:43:21.328Z,70.02
2023-04-10T23:48:24.220Z,70.87
2023-04-10T23:53:27.158Z,71.85
2023-04-10T23:58:31.462Z,71.47
